Time;durP1;ratioP1;P1;durP2;ratioP2;P2;SDS_P1;SDS_P2;PMS_P1;PMS_P2;Temp;Humidity;BMP_temperature;BMP_pressure;BME280_temperature;BME280_humidity;BME280_pressure;Samples;Min_cycle;Max_cycle;Signal;HPM_P1;HPM_P2
2022/06/16 00:01:40;;;;;;;1.00;0.77;;;18.00;54.10;20.10;94039.00;;;;10482005;28;45077;-67
2022/06/16 00:07:02;;;;;;;1.58;0.90;;;18.00;54.00;20.10;94027.00;;;;10481774;28;45850;-68
2022/06/16 00:12:22;;;;;;;1.20;0.95;;;18.00;54.00;20.10;94020.00;;;;10481462;28;45241;-67
2022/06/16 00:17:43;;;;;;;1.55;0.90;;;18.00;54.20;20.10;94026.00;;;;10481672;28;45278;-67
2022/06/16 00:23:05;;;;;;;1.27;1.00;;;18.00;54.10;20.10;94022.00;;;;10481454;28;45668;-67
2022/06/16 00:28:26;;;;;;;1.27;0.80;;;18.00;54.00;20.10;94009.00;;;;10481068;28;45688;-67
2022/06/16 00:33:47;;;;;;;1.98;1.00;;;18.00;54.10;20.10;94021.00;;;;10480705;28;45172;-67
2022/06/16 00:39:09;;;;;;;1.00;0.90;;;18.00;54.10;20.10;94006.00;;;;10480968;28;45866;-67
2022/06/16 00:44:43;;;;;;;1.17;0.73;;;18.00;54.10;20.10;94002.00;;;;10480304;28;45272;-67
2022/06/16 00:50:07;;;;;;;1.20;0.88;;;18.00;54.10;20.10;94008.00;;;;10480943;28;45599;-67
2022/06/16 00:55:29;;;;;;;0.93;0.82;;;18.00;54.10;20.10;94020.00;;;;10480745;28;45572;-68
2022/06/16 01:00:52;;;;;;;1.27;1.05;;;18.00;54.30;20.10;94027.00;;;;10475779;28;45216;-68
2022/06/16 01:06:23;;;;;;;1.48;0.85;;;18.00;54.30;20.10;94022.00;;;;10476514;28;45192;-68
2022/06/16 01:17:47;;;;;;;1.42;0.80;;;18.00;54.20;20.10;94065.00;;;;10479619;28;45196;-67
2022/06/16 01:23:59;;;;;;;1.48;0.80;;;18.00;54.30;20.10;94054.00;;;;10479155;28;45249;-67
2022/06/16 01:29:27;;;;;;;1.58;1.00;;;18.00;54.30;20.00;94038.00;;;;10478708;28;45875;-67
2022/06/16 01:34:57;;;;;;;2.50;1.10;;;17.90;54.20;20.10;93997.00;;;;10478985;28;45282;-67
2022/06/16 01:40:24;;;;;;;2.40;1.05;;;18.00;54.20;20.10;93999.00;;;;10478742;28;45790;-67
2022/06/16 01:45:53;;;;;;;1.52;0.90;;;18.00;54.30;20.10;94010.00;;;;10478063;28;45173;-67
2022/06/16 01:51:23;;;;;;;1.77;1.10;;;18.00;54.40;20.10;94021.00;;;;10478621;28;45239;-68
2022/06/16 01:56:48;;;;;;;1.65;0.88;;;18.00;54.30;20.10;94020.00;;;;10478384;28;45152;-67
2022/06/16 02:02:17;;;;;;;1.77;1.00;;;18.00;54.20;20.10;94004.00;;;;10478195;28;45775;-67
2022/06/16 02:07:43;;;;;;;1.02;0.85;;;17.90;54.30;20.10;94005.00;;;;10478121;28;45163;-67
2022/06/16 02:13:05;;;;;;;1.60;0.93;;;17.90;54.20;20.10;94003.00;;;;10477682;28;45127;-67
2022/06/16 02:18:30;;;;;;;1.45;1.00;;;18.00;54.50;20.00;93972.00;;;;10477555;28;45218;-67
2022/06/16 02:23:52;;;;;;;1.65;1.05;;;17.90;54.30;20.00;93968.00;;;;10477688;28;45195;-67
2022/06/16 02:29:29;;;;;;;1.48;0.80;;;17.90;54.40;20.00;93966.00;;;;10477345;28;45278;-67
2022/06/16 02:35:01;;;;;;;2.15;1.10;;;17.90;54.20;20.00;93987.00;;;;10476967;28;45255;-67
2022/06/16 02:40:41;;;;;;;1.30;0.90;;;17.90;54.10;20.00;93981.00;;;;10477293;28;45888;-67
2022/06/16 02:46:07;;;;;;;0.98;0.85;;;17.90;54.40;20.00;93983.00;;;;10476397;28;45299;-67
2022/06/16 02:51:40;;;;;;;2.00;1.02;;;17.90;54.30;20.00;93979.00;;;;10477035;28;45759;-67
2022/06/16 02:57:07;;;;;;;1.77;1.00;;;17.90;54.40;20.00;93980.00;;;;10476500;28;45162;-67
2022/06/16 03:02:28;;;;;;;1.60;1.02;;;17.90;54.30;20.00;93995.00;;;;10477024;28;45392;-67
2022/06/16 03:07:51;;;;;;;1.00;0.90;;;17.90;54.20;20.00;94010.00;;;;10476625;28;45218;-67
2022/06/16 03:13:11;;;;;;;1.90;1.00;;;17.90;54.40;20.00;94008.00;;;;10475959;28;45108;-67
2022/06/16 03:18:32;;;;;;;1.85;0.88;;;17.90;54.40;20.00;94022.00;;;;10476185;28;45128;-67
2022/06/16 03:23:53;;;;;;;1.70;0.95;;;17.90;54.40;20.00;94017.00;;;;10475906;28;45758;-67
2022/06/16 03:29:15;;;;;;;1.65;0.90;;;17.90;54.60;20.00;94016.00;;;;10476006;28;45302;-67
2022/06/16 03:34:35;;;;;;;1.30;1.00;;;17.90;54.50;20.00;94006.00;;;;10476106;28;45113;-67
2022/06/16 03:39:59;;;;;;;1.17;1.05;;;17.90;54.50;20.00;94017.00;;;;10475727;28;45102;-67
2022/06/16 03:45:19;;;;;;;1.63;1.05;;;17.90;54.40;20.00;94031.00;;;;10476278;28;45885;-67
2022/06/16 03:50:40;;;;;;;1.02;0.90;;;17.90;54.50;20.00;94023.00;;;;10481555;28;45165;-67
2022/06/16 03:56:02;;;;;;;1.38;0.90;;;17.90;54.50;20.00;94031.00;;;;10482064;28;45220;-67
2022/06/16 04:01:23;;;;;;;1.48;1.00;;;18.00;54.70;20.00;94033.00;;;;10482311;28;45689;-67
2022/06/16 04:06:44;;;;;;;1.17;0.95;;;17.90;54.70;20.00;94042.00;;;;10481903;28;45867;-67
2022/06/16 04:12:07;;;;;;;1.23;0.88;;;17.90;54.60;20.00;94044.00;;;;10481516;28;45777;-68
2022/06/16 04:17:28;;;;;;;1.83;1.13;;;17.90;54.70;20.00;94037.00;;;;10481685;28;45232;-67
2022/06/16 04:22:51;;;;;;;1.63;1.02;;;17.90;54.80;20.00;94045.00;;;;10481531;28;45299;-67
2022/06/16 04:28:13;;;;;;;2.08;1.17;;;17.90;54.40;20.00;94055.00;;;;10481593;28;45247;-67
2022/06/16 04:33:34;;;;;;;1.55;0.88;;;17.90;54.60;20.00;94063.00;;;;10481540;28;45788;-67
2022/06/16 04:38:55;;;;;;;2.67;1.20;;;17.90;54.70;20.00;94070.00;;;;10481849;28;45264;-67
2022/06/16 04:44:17;;;;;;;1.63;1.17;;;17.90;54.60;20.00;94071.00;;;;10480821;28;45278;-67
2022/06/16 04:49:38;;;;;;;2.65;1.00;;;17.90;55.20;20.00;94056.00;;;;10480891;28;45119;-67
2022/06/16 04:54:58;;;;;;;2.08;1.20;;;17.90;54.70;20.00;94067.00;;;;10480695;28;45183;-67
2022/06/16 05:00:21;;;;;;;1.60;1.10;;;17.90;54.70;20.00;94065.00;;;;10480002;28;45167;-67
2022/06/16 05:05:42;;;;;;;1.55;1.10;;;17.90;54.70;20.00;94050.00;;;;10479497;28;45118;-67
2022/06/16 05:11:03;;;;;;;1.67;1.00;;;17.90;54.70;20.00;94054.00;;;;10479925;28;45847;-67
2022/06/16 05:16:25;;;;;;;1.27;0.95;;;17.90;54.60;20.00;94057.00;;;;10479878;28;45222;-67
2022/06/16 05:21:45;;;;;;;1.20;1.00;;;17.90;54.60;20.00;94060.00;;;;10479678;28;45759;-67
2022/06/16 05:27:07;;;;;;;1.05;0.90;;;17.90;54.50;20.00;94065.00;;;;10479213;28;45687;-67
2022/06/16 05:32:28;;;;;;;1.25;0.80;;;17.90;54.40;20.00;94069.00;;;;10478985;28;45127;-67
2022/06/16 05:37:49;;;;;;;1.30;1.00;;;17.90;54.40;20.00;94073.00;;;;10478894;28;45223;-67
2022/06/16 05:43:10;;;;;;;1.27;0.90;;;17.90;54.40;20.00;94068.00;;;;10479038;28;45735;-67
2022/06/16 05:48:33;;;;;;;1.70;0.95;;;17.90;54.30;20.00;94087.00;;;;10478101;28;45234;-67
2022/06/16 05:53:53;;;;;;;1.75;1.15;;;17.90;54.30;20.00;94080.00;;;;10478822;28;45187;-67
2022/06/16 05:59:14;;;;;;;1.15;0.90;;;18.00;54.30;20.00;94088.00;;;;10478569;28;45194;-67
2022/06/16 06:04:35;;;;;;;1.13;0.82;;;17.90;54.20;20.00;94104.00;;;;10478490;28;45144;-67
2022/06/16 06:21:15;;;;;;;1.10;0.90;;;17.90;54.10;20.10;94097.00;;;;10477078;28;45097;-67
2022/06/16 06:26:35;;;;;;;1.88;1.05;;;18.00;54.30;20.10;94104.00;;;;10477159;28;45203;-67
2022/06/16 06:31:57;;;;;;;1.48;0.90;;;17.90;54.50;20.10;94104.00;;;;10477340;28;45108;-68
2022/06/16 06:37:22;;;;;;;2.35;1.00;;;18.00;54.50;20.10;94115.00;;;;10477194;28;45120;-67
2022/06/16 06:42:42;;;;;;;2.33;1.20;;;18.00;54.40;20.10;94125.00;;;;10475315;28;45327;-67
2022/06/16 06:48:07;;;;;;;3.72;1.40;;;18.00;54.60;20.10;94134.00;;;;10463871;28;45263;-67
2022/06/16 06:53:29;;;;;;;3.83;1.45;;;18.00;55.30;20.10;94117.00;;;;10467877;28;45882;-66
2022/06/16 06:58:50;;;;;;;3.75;1.45;;;18.00;55.10;20.20;94153.00;;;;10476571;28;45166;-67
2022/06/16 07:04:10;;;;;;;1.48;0.90;;;18.10;56.80;20.30;94148.00;;;;10476917;28;45182;-69
2022/06/16 07:09:32;;;;;;;3.88;1.30;;;18.20;57.20;20.30;94141.00;;;;10476585;28;45148;-67
2022/06/16 07:14:53;;;;;;;2.33;1.20;;;18.30;58.80;20.30;94130.00;;;;10476730;28;45225;-71
2022/06/16 07:20:15;;;;;;;1.90;1.15;;;18.30;58.10;20.30;94147.00;;;;10474462;28;45277;-71
2022/06/16 07:25:37;;;;;;;3.35;1.50;;;18.30;57.90;20.40;94167.00;;;;10481379;28;45151;-71
2022/06/16 07:30:58;;;;;;;2.92;1.75;;;18.30;60.10;20.40;94158.00;;;;10483589;28;45119;-71
2022/06/16 07:36:18;;;;;;;3.58;1.40;;;18.30;58.90;20.40;94164.00;;;;10482865;28;45213;-70
2022/06/16 07:41:40;;;;;;;4.00;1.52;;;18.30;59.00;20.40;94167.00;;;;10477050;28;45144;-70
2022/06/16 07:47:01;;;;;;;6.82;1.80;;;18.30;60.50;20.40;94165.00;;;;10482887;28;45222;-71
2022/06/16 07:52:21;;;;;;;3.55;1.40;;;18.30;59.40;20.40;94170.00;;;;10482675;28;45834;-71
2022/06/16 07:57:47;;;;;;;3.05;1.75;;;18.30;59.20;20.40;94149.00;;;;10482941;28;45771;-70
2022/06/16 08:03:07;;;;;;;4.65;1.70;;;18.30;58.80;20.40;94168.00;;;;10483219;28;45877;-72
2022/06/16 08:08:28;;;;;;;4.80;1.50;;;18.30;59.00;20.40;94172.00;;;;10475565;28;45855;-66
2022/06/16 08:13:50;;;;;;;3.60;1.60;;;18.30;59.30;20.50;94158.00;;;;10480773;28;45464;-68
2022/06/16 08:19:11;;;;;;;4.50;1.60;;;18.40;59.40;20.50;94161.00;;;;10480412;28;45244;-66
2022/06/16 08:24:32;;;;;;;5.03;1.52;;;18.40;59.00;20.50;94182.00;;;;10479604;28;45221;-69
2022/06/16 08:29:54;;;;;;;3.55;1.70;;;18.40;58.70;20.50;94176.00;;;;10481502;28;45870;-70
2022/06/16 08:35:15;;;;;;;4.47;1.55;;;18.40;58.60;20.50;94180.00;;;;10481124;28;45253;-70
2022/06/16 08:40:41;;;;;;;2.53;1.40;;;18.40;58.60;20.50;94185.00;;;;10478497;28;45107;-69
2022/06/16 08:46:06;;;;;;;4.07;1.50;;;18.40;58.30;20.50;94192.00;;;;10478573;28;45257;-68
2022/06/16 08:51:41;;;;;;;6.93;2.00;;;18.40;58.00;20.50;94187.00;;;;10458298;28;45999;-69
2022/06/16 08:57:12;;;;;;;7.63;2.08;;;18.30;58.60;20.50;94207.00;;;;10438022;28;45196;-73
2022/06/16 09:02:43;;;;;;;6.25;2.05;;;18.30;58.30;20.50;94196.00;;;;10438158;28;45247;-73
2022/06/16 09:08:21;;;;;;;8.70;3.22;;;18.40;58.10;20.50;94206.00;;;;10474357;28;45157;-71
2022/06/16 09:14:13;;;;;;;10.85;3.33;;;18.30;58.30;20.50;94217.00;;;;10479631;28;45239;-72
2022/06/16 09:19:53;;;;;;;14.18;3.90;;;18.40;58.10;20.50;94220.00;;;;10480012;28;45249;-71
2022/06/16 09:25:32;;;;;;;12.27;4.18;;;18.40;57.60;20.50;94228.00;;;;10478135;28;45160;-71
2022/06/16 09:30:55;;;;;;;14.85;4.85;;;18.40;57.50;20.50;94214.00;;;;10479589;28;45747;-71
2022/06/16 09:36:23;;;;;;;14.70;4.35;;;18.40;57.60;20.50;94223.00;;;;10479399;28;45359;-71
2022/06/16 09:47:38;;;;;;;11.50;4.25;;;18.40;57.70;20.50;94218.00;;;;10475036;28;45174;-68
2022/06/16 09:53:09;;;;;;;8.98;3.50;;;18.40;57.90;20.50;94229.00;;;;10477866;28;45708;-70
2022/06/16 09:58:35;;;;;;;8.45;3.28;;;18.40;58.10;20.50;94230.00;;;;10477581;28;45915;-71
2022/06/16 10:04:01;;;;;;;9.07;3.40;;;18.40;58.50;20.50;94233.00;;;;10478329;28;45167;-69
2022/06/16 10:09:29;;;;;;;6.47;2.20;;;18.40;58.60;20.70;94246.00;;;;10477972;28;45342;-72
2022/06/16 10:14:57;;;;;;;5.80;2.15;;;18.60;56.90;20.70;94267.00;;;;10476359;28;45716;-72
2022/06/16 10:20:21;;;;;;;5.07;1.90;;;18.60;56.40;20.60;94255.00;;;;10478270;28;45090;-71
2022/06/16 10:25:48;;;;;;;6.97;2.17;;;18.60;56.90;20.60;94253.00;;;;10477507;28;45195;-71
2022/06/16 10:31:09;;;;;;;4.55;2.20;;;18.50;57.00;20.60;94263.00;;;;10477838;28;45236;-71
2022/06/16 10:36:31;;;;;;;5.35;2.28;;;18.50;56.90;20.60;94240.00;;;;10477582;28;45181;-71
2022/06/16 10:42:01;;;;;;;4.68;1.98;;;18.50;56.60;20.50;94262.00;;;;10477249;28;45165;-71
2022/06/16 10:47:32;;;;;;;6.45;2.10;;;18.50;57.00;20.50;94270.00;;;;10477230;28;45874;-71
2022/06/16 10:52:58;;;;;;;4.18;2.05;;;18.50;56.90;20.50;94266.00;;;;10473062;28;45284;-70
2022/06/16 10:58:26;;;;;;;4.50;1.80;;;18.40;56.70;20.50;94275.00;;;;10469008;28;45104;-71
2022/06/16 11:03:50;;;;;;;4.22;1.80;;;18.40;56.60;20.50;94257.00;;;;10511450;28;45111;-71
2022/06/16 11:09:11;;;;;;;4.70;1.85;;;18.40;56.50;20.50;94260.00;;;;10526605;28;45412;-70
2022/06/16 11:14:37;;;;;;;5.43;1.70;;;18.40;56.90;20.50;94278.00;;;;10526084;28;45850;-71
2022/06/16 11:20:01;;;;;;;6.68;1.75;;;18.40;56.70;20.50;94262.00;;;;10509534;28;45155;-71
2022/06/16 11:25:28;;;;;;;3.25;1.60;;;18.40;56.60;20.50;94283.00;;;;10501302;28;45171;-72
2022/06/16 11:30:59;;;;;;;4.82;1.52;;;18.40;56.80;20.50;94276.00;;;;10505180;28;45221;-71
2022/06/16 11:36:51;;;;;;;4.68;1.95;;;18.40;56.60;20.50;94282.00;;;;10503287;28;45887;-70
2022/06/16 11:42:46;;;;;;;3.38;1.50;;;18.40;56.40;20.50;94262.00;;;;10502869;27;45222;-71
2022/06/16 11:48:23;;;;;;;3.20;1.60;;;18.40;56.70;20.50;94281.00;;;;10500745;28;45173;-71
2022/06/16 11:54:02;;;;;;;3.65;1.77;;;18.40;56.60;20.50;94262.00;;;;10503326;28;45214;-71
2022/06/16 12:00:07;;;;;;;4.65;1.60;;;18.40;56.30;20.50;94257.00;;;;10500221;28;45658;-70
2022/06/16 12:05:39;;;;;;;4.72;1.60;;;18.40;56.80;20.50;94266.00;;;;10504241;27;45223;-70
2022/06/16 12:11:09;;;;;;;3.40;1.60;;;18.40;56.70;20.50;94270.00;;;;10496002;28;45129;-71
2022/06/16 12:16:36;;;;;;;4.18;1.63;;;18.50;56.60;20.50;94269.00;;;;10482639;28;45382;-74
2022/06/16 12:22:05;;;;;;;3.35;1.40;;;18.40;56.30;20.50;94275.00;;;;10482286;28;45184;-74
2022/06/16 12:27:36;;;;;;;2.47;1.40;;;18.40;56.50;20.60;94284.00;;;;10482452;28;45867;-69
2022/06/16 12:33:06;;;;;;;3.53;1.40;;;18.40;56.60;20.60;94269.00;;;;10482132;28;45140;-69
2022/06/16 12:38:34;;;;;;;3.78;1.65;;;18.50;56.70;20.60;94273.00;;;;10482491;28;45178;-70
2022/06/16 12:44:00;;;;;;;4.10;1.52;;;18.50;56.30;20.60;94286.00;;;;10481043;28;45272;-69
2022/06/16 12:49:26;;;;;;;3.53;1.30;;;18.50;56.20;20.60;94279.00;;;;10482338;28;45847;-69
2022/06/16 12:54:58;;;;;;;3.05;1.60;;;18.60;56.50;20.60;94279.00;;;;10481110;28;45137;-70
2022/06/16 13:00:21;;;;;;;2.83;1.20;;;18.60;56.60;20.60;94272.00;;;;10481685;28;45115;-69
2022/06/16 13:05:42;;;;;;;2.90;1.60;;;18.60;56.10;20.60;94266.00;;;;10481107;28;45784;-69
2022/06/16 13:11:10;;;;;;;4.97;1.40;;;18.60;56.30;20.70;94275.00;;;;10481229;28;45187;-70
2022/06/16 13:16:34;;;;;;;2.67;1.35;;;18.60;56.30;20.70;94266.00;;;;10481770;28;45766;-69
2022/06/16 13:21:57;;;;;;;3.70;1.52;;;18.60;56.20;20.70;94275.00;;;;10480856;28;45766;-69
2022/06/16 13:27:27;;;;;;;2.70;1.35;;;18.60;56.20;20.70;94270.00;;;;10480504;28;45758;-69
2022/06/16 13:33:32;;;;;;;2.53;1.40;;;18.60;56.50;20.70;94255.00;;;;10480446;28;45341;-69
2022/06/16 13:38:55;;;;;;;2.95;1.20;;;18.60;55.90;20.70;94265.00;;;;10479639;28;45175;-69
2022/06/16 13:44:29;;;;;;;2.20;1.38;;;18.70;56.10;20.70;94264.00;;;;10482289;28;45160;-69
2022/06/16 13:50:12;;;;;;;2.90;1.40;;;18.60;55.90;20.70;94265.00;;;;10495167;28;45309;-69
2022/06/16 13:55:35;;;;;;;3.17;1.50;;;18.70;56.50;20.70;94261.00;;;;10508610;28;45385;-69
2022/06/16 14:01:15;;;;;;;3.70;1.52;;;18.70;56.20;20.70;94263.00;;;;10497627;28;45958;-69
2022/06/16 14:06:40;;;;;;;2.97;1.20;;;18.70;56.00;20.70;94265.00;;;;10501723;28;45392;-69
2022/06/16 14:12:19;;;;;;;2.58;1.50;;;18.70;56.20;20.80;94272.00;;;;10507118;28;45333;-69
2022/06/16 14:18:13;;;;;;;2.90;1.30;;;18.70;56.00;20.80;94265.00;;;;10506066;28;45172;-69
2022/06/16 14:23:42;;;;;;;1.90;1.02;;;18.70;55.90;20.80;94267.00;;;;10483604;28;45323;-69
2022/06/16 14:29:06;;;;;;;2.22;1.20;;;18.70;55.90;20.80;94268.00;;;;10455605;28;45289;-69
2022/06/16 14:34:36;;;;;;;3.17;1.25;;;18.80;56.10;20.80;94263.00;;;;10460270;28;45160;-68
2022/06/16 14:40:04;;;;;;;2.53;1.35;;;18.80;55.80;20.80;94268.00;;;;10478481;28;45187;-69
2022/06/16 14:45:33;;;;;;;2.63;1.35;;;18.80;55.90;20.80;94269.00;;;;10476969;28;45175;-70
2022/06/16 14:51:02;;;;;;;3.13;1.40;;;18.80;56.00;20.80;94275.00;;;;10477502;28;45286;-69
2022/06/16 14:56:23;;;;;;;3.72;1.10;;;18.80;56.00;20.80;94279.00;;;;10477500;28;45240;-70
2022/06/16 15:01:45;;;;;;;1.80;1.20;;;18.70;56.20;20.80;94272.00;;;;10417572;28;45176;-69
2022/06/16 15:07:07;;;;;;;1.38;0.98;;;18.80;56.20;20.80;94259.00;;;;10413482;28;45854;-69
2022/06/16 15:12:29;;;;;;;1.38;1.00;;;18.80;56.20;20.80;94245.00;;;;10409102;28;45131;-69
2022/06/16 15:23:36;;;;;;;2.03;1.13;;;18.80;56.00;20.90;94247.00;;;;10412664;28;45228;-69
2022/06/16 15:29:04;;;;;;;2.45;1.30;;;18.80;56.00;20.90;94247.00;;;;10396419;28;45474;-69
2022/06/16 15:40:06;;;;;;;2.67;1.20;;;18.90;56.10;20.90;94247.00;;;;10389802;28;45851;-69
2022/06/16 15:45:27;;;;;;;1.55;1.10;;;18.90;56.30;20.90;94264.00;;;;10413934;22;46027;-60
2022/06/16 15:50:48;;;;;;;2.08;1.10;;;18.90;55.90;21.00;94254.00;;;;10399127;28;45114;-59
2022/06/16 15:56:12;;;;;;;1.52;1.00;;;18.90;56.20;21.00;94242.00;;;;10398695;28;45724;-61
2022/06/16 16:01:39;;;;;;;2.60;1.67;;;18.90;55.70;21.00;94249.00;;;;10399094;28;45692;-61
2022/06/16 16:06:59;;;;;;;1.48;1.33;;;19.00;55.60;21.10;94257.00;;;;10398775;28;45206;-60
2022/06/16 16:12:24;;;;;;;3.03;2.03;;;19.00;55.40;21.10;94248.00;;;;10398779;28;45109;-59
2022/06/16 16:17:55;;;;;;;4.53;3.80;;;19.00;55.10;21.10;94265.00;;;;10398496;28;45105;-59
2022/06/16 16:23:20;;;;;;;5.28;4.20;;;19.10;55.90;21.10;94257.00;;;;10398228;28;45261;-60
2022/06/16 16:28:52;;;;;;;4.70;3.65;;;19.10;56.10;21.10;94261.00;;;;10398198;28;46005;-59
2022/06/16 16:34:13;;;;;;;5.00;3.25;;;19.10;55.70;21.10;94276.00;;;;10397634;28;45159;-59
2022/06/16 16:39:36;;;;;;;4.70;3.20;;;19.10;55.70;21.10;94266.00;;;;10397312;28;45201;-59
2022/06/16 16:45:11;;;;;;;3.55;3.10;;;19.10;55.80;21.10;94281.00;;;;10397083;28;45768;-60
2022/06/16 16:50:34;;;;;;;3.65;2.75;;;19.10;55.70;21.10;94285.00;;;;10397237;28;45205;-61
2022/06/16 16:56:09;;;;;;;3.95;3.00;;;19.10;56.40;21.10;94289.00;;;;10396569;28;45194;-60
2022/06/16 17:01:35;;;;;;;4.45;2.78;;;19.10;55.60;21.10;94275.00;;;;10389532;28;45468;-59
2022/06/16 17:06:56;;;;;;;4.03;3.03;;;19.10;55.50;21.10;94284.00;;;;10392943;28;45234;-59
2022/06/16 17:12:16;;;;;;;3.33;2.72;;;19.10;55.40;21.20;94287.00;;;;10394828;28;45131;-59
2022/06/16 17:17:39;;;;;;;4.38;2.58;;;19.10;55.70;21.10;94278.00;;;;10392732;28;45197;-60
2022/06/16 17:23:00;;;;;;;3.40;2.90;;;19.10;55.40;21.20;94284.00;;;;10391474;28;45089;-60
2022/06/16 17:28:20;;;;;;;2.85;2.40;;;19.10;55.20;21.20;94297.00;;;;10395300;28;45808;-59
2022/06/16 17:33:44;;;;;;;3.17;2.70;;;19.10;55.30;21.10;94306.00;;;;10396155;28;45107;-59
2022/06/16 17:39:05;;;;;;;3.67;2.78;;;19.10;55.30;21.10;94316.00;;;;10392223;28;45236;-60
2022/06/16 17:44:25;;;;;;;3.53;2.50;;;19.10;55.50;21.10;94325.00;;;;10395513;28;45255;-60
2022/06/16 17:49:48;;;;;;;3.70;2.55;;;19.10;55.40;21.10;94323.00;;;;10392660;28;45351;-60
2022/06/16 18:00:58;;;;;;;3.38;2.20;;;19.10;55.60;21.10;94316.00;;;;10388345;28;45863;-59
2022/06/16 18:06:21;;;;;;;3.85;2.00;;;19.00;55.60;21.10;94330.00;;;;10393143;28;45171;-59
2022/06/16 18:11:41;;;;;;;2.88;2.28;;;19.00;55.50;21.00;94332.00;;;;10394222;28;45871;-59
2022/06/16 18:17:02;;;;;;;3.03;2.35;;;19.00;55.50;21.00;94330.00;;;;10393337;28;45190;-60
2022/06/16 18:22:27;;;;;;;3.63;1.90;;;19.00;55.50;21.00;94321.00;;;;10394224;28;45686;-60
2022/06/16 18:27:48;;;;;;;2.72;2.10;;;18.90;55.60;21.00;94329.00;;;;10389390;28;45886;-59
2022/06/16 18:33:15;;;;;;;3.50;1.92;;;18.90;55.60;21.00;94335.00;;;;10391223;28;47459;-60
2022/06/16 18:38:37;;;;;;;2.67;1.90;;;18.90;55.70;20.90;94331.00;;;;10392419;28;45930;-59
2022/06/16 18:43:58;;;;;;;2.80;2.03;;;18.90;55.60;20.90;94340.00;;;;10393290;28;45252;-59
2022/06/16 18:49:18;;;;;;;2.30;2.03;;;18.90;55.80;20.90;94326.00;;;;10392951;28;45848;-59
2022/06/16 18:54:40;;;;;;;3.00;2.00;;;18.80;55.60;20.90;94339.00;;;;10393458;28;45748;-59
2022/06/16 19:00:00;;;;;;;3.20;1.90;;;18.90;55.80;20.90;94324.00;;;;10393479;28;45149;-59
2022/06/16 19:05:24;;;;;;;2.90;1.90;;;18.80;55.80;20.90;94330.00;;;;10393302;28;45200;-60
2022/06/16 19:10:47;;;;;;;1.90;1.50;;;18.80;55.60;20.80;94334.00;;;;10393160;28;45239;-59
2022/06/16 19:16:09;;;;;;;3.50;1.75;;;18.80;55.90;20.80;94342.00;;;;10392533;28;45229;-59
2022/06/16 19:21:33;;;;;;;2.38;1.77;;;18.80;55.80;20.80;94334.00;;;;10400210;28;45096;-60
2022/06/16 19:26:56;;;;;;;1.95;1.50;;;18.70;55.70;20.80;94329.00;;;;10398926;28;45285;-60
2022/06/16 19:32:16;;;;;;;2.47;1.75;;;18.80;55.70;20.80;94337.00;;;;10399802;28;45185;-59
2022/06/16 19:37:38;;;;;;;2.28;1.63;;;18.70;55.70;20.80;94361.00;;;;10398587;28;45163;-60
2022/06/16 19:43:03;;;;;;;2.83;1.77;;;18.70;55.70;20.80;94352.00;;;;10399000;28;45196;-60
2022/06/16 19:54:02;;;;;;;2.83;1.50;;;18.70;55.80;20.80;94364.00;;;;10399369;28;45119;-60
2022/06/16 19:59:24;;;;;;;2.35;1.70;;;18.70;55.70;20.70;94384.00;;;;10398109;28;45310;-60
2022/06/16 20:04:44;;;;;;;2.78;1.60;;;18.60;55.80;20.70;94392.00;;;;10398389;28;45248;-60
2022/06/16 20:10:07;;;;;;;2.90;1.90;;;18.60;55.70;20.70;94397.00;;;;10392196;28;45284;-59
2022/06/16 20:15:29;;;;;;;2.03;1.58;;;18.70;55.90;20.70;94411.00;;;;10396359;28;45197;-60
2022/06/16 20:20:56;;;;;;;1.63;1.50;;;18.60;55.60;20.70;94425.00;;;;10398637;28;45224;-59
2022/06/16 20:26:18;;;;;;;2.22;1.65;;;18.60;55.90;20.70;94418.00;;;;10398224;28;45188;-60
2022/06/16 20:31:40;;;;;;;2.33;1.80;;;18.60;55.80;20.70;94414.00;;;;10397313;28;45054;-59
2022/06/16 20:37:01;;;;;;;3.60;2.08;;;18.60;55.70;20.70;94428.00;;;;10397502;28;45238;-60
2022/06/16 20:42:21;;;;;;;2.75;1.83;;;18.60;55.80;20.70;94435.00;;;;10397709;28;45116;-60
2022/06/16 20:47:43;;;;;;;3.20;2.00;;;18.60;55.60;20.70;94426.00;;;;10397239;28;45152;-59
2022/06/16 20:53:04;;;;;;;2.50;2.00;;;18.60;55.70;20.60;94414.00;;;;10397484;28;45253;-59
2022/06/16 21:04:05;;;;;;;2.65;2.10;;;18.50;55.70;20.60;94432.00;;;;10397281;28;45105;-61
2022/06/16 21:09:27;;;;;;;2.92;2.10;;;18.50;55.80;20.60;94418.00;;;;10396794;28;45102;-59
2022/06/16 21:14:48;;;;;;;3.42;2.15;;;18.50;55.70;20.60;94434.00;;;;10396788;28;45229;-59
2022/06/16 21:20:18;;;;;;;3.08;2.00;;;18.50;55.70;20.60;94428.00;;;;10396398;28;45205;-60
2022/06/16 21:25:39;;;;;;;2.53;2.00;;;18.50;55.60;20.60;94424.00;;;;10395715;28;45125;-60
2022/06/16 21:30:59;;;;;;;2.80;2.35;;;18.50;55.60;20.60;94416.00;;;;10396122;28;45182;-60
2022/06/16 21:36:21;;;;;;;2.30;1.90;;;18.50;55.70;20.60;94433.00;;;;10395751;28;45232;-60
2022/06/16 21:41:42;;;;;;;2.08;1.88;;;18.50;55.60;20.60;94439.00;;;;10395053;28;45184;-60
2022/06/16 21:47:03;;;;;;;2.72;2.10;;;18.50;55.70;20.60;94436.00;;;;10418693;22;45201;-59
2022/06/16 21:52:26;;;;;;;2.67;1.90;;;18.50;55.60;20.60;94447.00;;;;10395952;28;45148;-59
2022/06/16 21:57:49;;;;;;;2.63;2.00;;;18.50;55.70;20.60;94465.00;;;;10357263;28;45791;-59
2022/06/16 22:03:12;;;;;;;2.17;1.98;;;18.50;55.70;20.60;94470.00;;;;10354443;28;45857;-60
2022/06/16 22:08:34;;;;;;;2.20;1.77;;;18.50;55.80;20.50;94469.00;;;;10354047;28;45222;-60
2022/06/16 22:13:55;;;;;;;2.40;2.00;;;18.50;55.80;20.50;94473.00;;;;10354127;28;45174;-61
2022/06/16 22:19:15;;;;;;;1.95;1.75;;;18.50;55.70;20.50;94467.00;;;;10353790;28;45457;-59
2022/06/16 22:24:37;;;;;;;2.47;1.75;;;18.50;55.60;20.50;94487.00;;;;10354050;28;45736;-60
2022/06/16 22:29:58;;;;;;;1.80;1.70;;;18.50;55.50;20.50;94487.00;;;;10353288;28;45677;-61
2022/06/16 22:35:22;;;;;;;1.85;1.63;;;18.40;55.70;20.50;94495.00;;;;10353275;28;45169;-60
2022/06/16 22:40:47;;;;;;;2.05;1.70;;;18.50;55.80;20.50;94500.00;;;;10353727;28;45188;-59
2022/06/16 22:46:12;;;;;;;1.80;1.48;;;18.40;55.60;20.50;94501.00;;;;10352746;28;45125;-60
2022/06/16 22:51:32;;;;;;;2.75;1.75;;;18.40;55.60;20.50;94508.00;;;;10352896;28;45748;-61
2022/06/16 22:56:54;;;;;;;2.65;1.75;;;18.40;55.60;20.50;94513.00;;;;10359505;28;45913;-60
2022/06/16 23:02:15;;;;;;;4.82;1.65;;;18.40;55.60;20.50;94510.00;;;;10360185;28;45210;-59
2022/06/16 23:07:36;;;;;;;1.60;1.50;;;18.40;55.50;20.50;94528.00;;;;10359164;28;45348;-60
2022/06/16 23:12:58;;;;;;;1.88;1.40;;;18.40;55.60;20.50;94525.00;;;;10354150;28;45884;-59
2022/06/16 23:18:22;;;;;;;1.60;1.42;;;18.40;55.50;20.50;94527.00;;;;10358306;28;45391;-60
2022/06/16 23:23:43;;;;;;;2.15;1.45;;;18.40;55.50;20.50;94537.00;;;;10359242;28;45261;-60
2022/06/16 23:29:05;;;;;;;1.98;1.67;;;18.40;55.50;20.40;94530.00;;;;10359214;28;45277;-59
2022/06/16 23:34:26;;;;;;;2.28;1.50;;;18.40;55.50;20.50;94523.00;;;;10359271;28;45193;-60
2022/06/16 23:39:47;;;;;;;1.80;1.42;;;18.40;55.50;20.40;94528.00;;;;10359343;28;45234;-59
2022/06/16 23:45:11;;;;;;;1.58;1.42;;;18.30;55.40;20.40;94537.00;;;;10358516;28;45038;-61
2022/06/16 23:50:35;;;;;;;1.77;1.40;;;18.30;55.50;20.40;94544.00;;;;10358608;28;45705;-59
2022/06/16 23:56:00;;;;;;;2.10;1.30;;;18.40;55.50;20.40;94532.00;;;;10358160;28;45196;-59
